createdAt,value
2022-11-01T00:02:00.943Z,12.12
2022-11-01T00:04:28.062Z,12.08
2022-11-01T00:06:55.163Z,12.09
2022-11-01T00:09:22.253Z,12.11
2022-11-01T00:11:49.482Z,12.08
2022-11-01T00:14:18.762Z,12.06
2022-11-01T00:16:45.672Z,12.06
2022-11-01T00:19:13.990Z,12.05
2022-11-01T00:21:40.954Z,12.05
2022-11-01T00:24:08.094Z,12.01
2022-11-01T00:26:35.349Z,12.03
2022-11-01T00:29:02.410Z,12.00
2022-11-01T00:31:29.953Z,11.94
2022-11-01T00:33:57.100Z,11.94
2022-11-01T00:36:25.243Z,11.97
2022-11-01T00:38:52.828Z,11.95
2022-11-01T00:41:21.133Z,11.87
2022-11-01T00:43:47.992Z,11.91
2022-11-01T00:46:15.135Z,11.79
2022-11-01T00:48:42.199Z,11.81
2022-11-01T00:51:09.170Z,11.73
2022-11-01T00:53:36.182Z,11.57
2022-11-01T00:56:07.223Z,11.57
2022-11-01T00:58:35.642Z,11.61
2022-11-01T01:01:02.983Z,11.51
2022-11-01T01:03:29.982Z,11.49
2022-11-01T01:05:57.062Z,11.49
2022-11-01T01:08:24.723Z,11.53
2022-11-01T01:10:51.922Z,11.54
2022-11-01T01:13:19.403Z,11.43
2022-11-01T01:15:46.492Z,11.46
2022-11-01T01:18:14.143Z,11.49
2022-11-01T01:20:41.202Z,11.48
2022-11-01T01:23:08.325Z,11.45
2022-11-01T01:25:35.422Z,11.33
2022-11-01T01:28:02.655Z,11.28
2022-11-01T01:30:29.802Z,11.34
2022-11-01T01:32:56.802Z,11.32
2022-11-01T01:35:23.823Z,11.31
2022-11-01T01:37:50.903Z,11.28
2022-11-01T01:40:17.922Z,11.30
2022-11-01T01:42:44.984Z,11.25
2022-11-01T01:45:26.782Z,11.28
2022-11-01T01:47:55.910Z,11.15
2022-11-01T01:50:36.844Z,11.15
2022-11-01T01:53:12.702Z,11.08
2022-11-01T01:56:26.982Z,11.07
2022-11-01T01:59:06.961Z,11.03
2022-11-01T02:01:37.309Z,11.06
2022-11-01T02:04:09.322Z,11.00
2022-11-01T02:06:38.024Z,10.98
2022-11-01T02:09:07.222Z,10.92
2022-11-01T02:11:34.903Z,10.92
2022-11-01T02:14:03.422Z,10.91
2022-11-01T02:16:45.109Z,10.92
2022-11-01T02:19:54.182Z,10.86
2022-11-01T02:22:52.088Z,10.83
2022-11-01T02:25:41.246Z,10.83
2022-11-01T02:28:46.073Z,10.74
2022-11-01T02:31:50.563Z,10.67
2022-11-01T02:34:33.482Z,10.68
2022-11-01T02:37:28.890Z,10.65
2022-11-01T02:40:08.562Z,10.64
2022-11-01T02:42:55.584Z,10.62
2022-11-01T02:45:34.605Z,10.63
2022-11-01T02:48:03.027Z,10.63
2022-11-01T02:50:54.203Z,10.63
2022-11-01T02:53:21.264Z,10.62
2022-11-01T02:55:48.325Z,10.58
2022-11-01T02:58:27.882Z,10.64
2022-11-01T03:00:57.265Z,10.62
2022-11-01T03:03:31.878Z,10.63
2022-11-01T03:06:01.823Z,10.65
2022-11-01T03:08:34.886Z,10.68
2022-11-01T03:11:11.327Z,10.70
2022-11-01T03:13:57.910Z,10.65
2022-11-01T03:16:52.047Z,10.63
2022-11-01T03:19:29.243Z,10.66
2022-11-01T03:21:59.342Z,10.60
2022-11-01T03:25:02.282Z,10.59
2022-11-01T03:27:36.062Z,10.48
2022-11-01T03:30:09.790Z,10.44
2022-11-01T03:32:47.078Z,10.41
2022-11-01T03:35:24.664Z,10.27
2022-11-01T03:37:55.723Z,10.27
2022-11-01T03:40:26.585Z,10.29
2022-11-01T03:42:58.105Z,10.29
2022-11-01T03:45:27.087Z,10.28
2022-11-01T03:47:54.142Z,10.19
2022-11-01T03:50:22.812Z,10.16
2022-11-01T03:52:50.324Z,10.15
2022-11-01T03:55:19.257Z,10.13
2022-11-01T03:58:00.277Z,10.12
2022-11-01T04:00:33.369Z,10.10
2022-11-01T04:03:01.391Z,10.08
2022-11-01T04:05:30.823Z,10.05
2022-11-01T04:07:58.018Z,10.02
2022-11-01T04:10:27.483Z,10.03
2022-11-01T04:12:54.543Z,9.99
2022-11-01T04:15:41.543Z,9.98
2022-11-01T04:18:42.981Z,9.95
2022-11-01T04:21:15.231Z,9.88
2022-11-01T04:23:43.464Z,9.85
2022-11-01T04:26:15.704Z,9.84
2022-11-01T04:28:45.622Z,9.83
2022-11-01T04:31:12.754Z,9.68
2022-11-01T04:33:39.770Z,9.65
2022-11-01T04:36:07.894Z,9.65
2022-11-01T04:38:34.903Z,9.64
2022-11-01T04:41:01.847Z,9.59
2022-11-01T04:43:29.942Z,9.56
2022-11-01T04:45:57.603Z,9.51
2022-11-01T04:48:26.327Z,9.49
2022-11-01T04:50:53.923Z,9.46
2022-11-01T04:53:20.927Z,9.37
2022-11-01T04:55:47.971Z,9.23
2022-11-01T04:58:15.082Z,9.27
2022-11-01T05:00:44.094Z,9.27
2022-11-01T05:03:12.273Z,9.27
2022-11-01T05:05:39.862Z,9.26
2022-11-01T05:08:11.823Z,9.27
2022-11-01T05:10:44.522Z,9.27
2022-11-01T05:13:13.145Z,9.25
2022-11-01T05:15:53.213Z,9.26
2022-11-01T05:18:27.191Z,9.22
2022-11-01T05:20:54.099Z,9.21
2022-11-01T05:23:21.007Z,9.18
2022-11-01T05:25:47.957Z,9.11
2022-11-01T05:28:14.982Z,9.11
2022-11-01T05:30:42.883Z,9.06
2022-11-01T05:33:11.417Z,9.03
2022-11-01T05:35:38.572Z,9.00
2022-11-01T05:38:06.616Z,8.97
2022-11-01T05:40:34.007Z,8.88
2022-11-01T05:43:01.543Z,8.90
2022-11-01T05:45:28.668Z,8.89
2022-11-01T05:47:55.618Z,8.89
2022-11-01T05:50:22.686Z,8.88
2022-11-01T05:52:50.254Z,8.83
2022-11-01T05:55:17.393Z,8.82
2022-11-01T05:57:44.454Z,8.82
2022-11-01T06:00:12.247Z,8.80
2022-11-01T06:02:39.274Z,8.82
2022-11-01T06:05:06.432Z,8.90
2022-11-01T06:07:35.947Z,8.97
2022-11-01T06:10:03.593Z,8.97
2022-11-01T06:12:30.684Z,9.02
2022-11-01T06:14:57.606Z,9.03
2022-11-01T06:17:25.151Z,9.11
2022-11-01T06:19:52.117Z,9.14
2022-11-01T06:22:19.081Z,9.19
2022-11-01T06:24:46.105Z,9.30
2022-11-01T06:27:13.167Z,9.38
2022-11-01T06:29:40.155Z,9.36
2022-11-01T06:32:07.145Z,9.40
2022-11-01T06:34:34.417Z,9.47
2022-11-01T06:37:01.590Z,9.54
2022-11-01T06:39:28.878Z,9.61
2022-11-01T06:41:55.969Z,9.68
2022-11-01T06:44:23.232Z,9.66
2022-11-01T06:46:50.216Z,9.75
2022-11-01T06:49:19.148Z,9.84
2022-11-01T06:51:47.067Z,9.90
2022-11-01T06:54:14.468Z,10.00
2022-11-01T06:56:41.470Z,10.12
2022-11-01T06:59:09.359Z,10.24
2022-11-01T07:01:36.503Z,10.36
2022-11-01T07:04:03.689Z,10.52
2022-11-01T07:06:31.262Z,10.60
2022-11-01T07:09:01.475Z,10.71
2022-11-01T07:11:31.416Z,10.88
2022-11-01T07:14:00.171Z,10.96
2022-11-01T07:16:28.149Z,11.06
2022-11-01T07:18:55.585Z,11.15
2022-11-01T07:21:23.035Z,11.14
2022-11-01T07:23:50.396Z,11.31
2022-11-01T07:26:17.340Z,11.39
2022-11-01T07:28:44.309Z,11.34
2022-11-01T07:31:11.296Z,11.38
2022-11-01T07:33:38.796Z,11.47
2022-11-01T07:36:06.153Z,11.59
2022-11-01T07:38:33.738Z,11.70
2022-11-01T07:41:00.851Z,11.81
2022-11-01T07:43:27.835Z,11.87
2022-11-01T07:46:00.301Z,11.93
2022-11-01T07:48:27.865Z,11.93
2022-11-01T07:50:57.456Z,11.97
2022-11-01T07:53:24.954Z,12.11
2022-11-01T07:55:52.471Z,12.16
2022-11-01T07:58:19.447Z,12.19
2022-11-01T08:00:46.539Z,12.21
2022-11-01T08:03:15.807Z,12.24
2022-11-01T08:05:43.791Z,12.20
2022-11-01T08:08:11.367Z,12.25
2022-11-01T08:10:39.298Z,12.28
2022-11-01T08:13:14.464Z,12.32
2022-11-01T08:15:41.619Z,12.36
2022-11-01T08:18:08.865Z,12.53
2022-11-01T08:20:36.054Z,12.65
2022-11-01T08:23:04.055Z,12.70
2022-11-01T08:25:31.695Z,12.83
2022-11-01T08:28:19.966Z,12.94
2022-11-01T08:30:48.785Z,13.09
2022-11-01T08:33:16.064Z,13.19
2022-11-01T08:35:49.863Z,13.35
2022-11-01T08:38:17.386Z,13.47
2022-11-01T08:40:44.317Z,13.60
2022-11-01T08:43:11.296Z,13.77
2022-11-01T08:45:38.457Z,13.90
2022-11-01T08:48:05.794Z,14.09
2022-11-01T08:50:34.618Z,14.26
2022-11-01T08:53:06.414Z,14.46
2022-11-01T08:55:37.568Z,14.58
2022-11-01T08:58:07.021Z,14.78
2022-11-01T09:00:34.605Z,14.94
2022-11-01T09:03:01.656Z,15.13
2022-11-01T09:05:31.747Z,15.31
2022-11-01T09:08:00.438Z,15.48
2022-11-01T09:10:31.085Z,15.70
2022-11-01T09:13:02.467Z,15.88
2022-11-01T09:15:30.698Z,16.09
2022-11-01T09:17:58.120Z,16.32
2022-11-01T09:20:26.675Z,16.48
2022-11-01T09:22:53.625Z,16.45
2022-11-01T09:25:20.685Z,16.69
2022-11-01T09:27:47.615Z,16.77
2022-11-01T09:30:14.797Z,16.95
2022-11-01T09:32:41.837Z,17.05
2022-11-01T09:35:09.331Z,17.31
2022-11-01T09:37:36.356Z,17.55
2022-11-01T09:40:03.864Z,17.63
2022-11-01T09:42:34.625Z,17.94
2022-11-01T09:45:08.295Z,18.09
2022-11-01T09:47:36.916Z,18.25
2022-11-01T09:50:17.834Z,18.58
2022-11-01T09:52:44.997Z,18.85
2022-11-01T09:55:17.757Z,19.04
2022-11-01T09:57:51.020Z,19.30
2022-11-01T10:00:21.867Z,19.47
2022-11-01T10:06:19.796Z,19.98
2022-11-01T10:09:42.155Z,20.18
2022-11-01T10:12:46.038Z,20.43
2022-11-01T10:15:44.020Z,20.65
2022-11-01T10:18:20.256Z,20.88
2022-11-01T10:20:48.400Z,20.99
2022-11-01T10:23:17.516Z,21.18
2022-11-01T10:25:51.536Z,21.32
2022-11-01T10:28:29.897Z,21.50
2022-11-01T10:31:03.075Z,21.63
2022-11-01T10:33:32.397Z,21.73
2022-11-01T10:36:06.105Z,21.89
2022-11-01T10:39:22.979Z,21.99
2022-11-01T10:41:52.703Z,22.10
2022-11-01T10:44:36.105Z,22.21
2022-11-01T10:47:07.375Z,22.37
2022-11-01T10:50:04.723Z,22.41
2022-11-01T10:52:48.036Z,22.51
2022-11-01T10:55:20.038Z,22.61
2022-11-01T10:57:56.677Z,22.67
2022-11-01T11:00:24.013Z,22.74
2022-11-01T11:03:02.416Z,22.81
2022-11-01T11:05:31.555Z,22.95
2022-11-01T11:07:58.614Z,23.10
2022-11-01T11:10:28.578Z,23.22
2022-11-01T11:13:03.670Z,23.39
2022-11-01T11:15:46.167Z,23.48
2022-11-01T11:18:39.808Z,23.54
2022-11-01T11:21:10.046Z,23.76
2022-11-01T11:23:42.781Z,23.71
2022-11-01T11:26:20.836Z,23.97
2022-11-01T11:28:57.194Z,24.14
2022-11-01T11:31:32.216Z,24.26
2022-11-01T11:34:03.296Z,24.36
2022-11-01T11:36:34.914Z,24.45
2022-11-01T11:39:03.220Z,24.49
2022-11-01T11:41:33.457Z,24.48
2022-11-01T11:44:00.708Z,24.62
2022-11-01T11:46:28.182Z,24.67
2022-11-01T11:49:07.381Z,24.70
2022-11-01T11:51:38.501Z,24.72
2022-11-01T11:54:05.499Z,24.71
2022-11-01T11:56:32.721Z,24.77
2022-11-01T11:59:08.682Z,24.76
2022-11-01T12:13:49.009Z,23.99
2022-11-01T12:16:25.076Z,23.89
2022-11-01T12:18:55.425Z,23.84
2022-11-01T12:21:34.581Z,23.92
2022-11-01T12:24:20.266Z,24.08
2022-11-01T12:26:49.917Z,24.38
2022-11-01T12:29:37.574Z,24.64
2022-11-01T12:32:14.836Z,24.83
2022-11-01T12:34:44.485Z,25.05
2022-11-01T12:37:26.764Z,25.15
2022-11-01T12:40:17.240Z,25.20
2022-11-01T12:42:55.377Z,25.07
2022-11-01T12:45:25.244Z,24.90
2022-11-01T12:48:01.285Z,24.84
2022-11-01T12:50:48.681Z,24.98
2022-11-01T12:53:21.808Z,25.30
2022-11-01T12:55:49.066Z,25.56
2022-11-01T12:58:20.351Z,25.74
2022-11-01T13:00:50.206Z,25.80
2022-11-01T13:03:45.805Z,25.93
2022-11-01T13:06:52.644Z,25.85
2022-11-01T13:09:43.331Z,25.91
2022-11-01T13:12:27.413Z,25.83
2022-11-01T13:15:10.613Z,26.21
2022-11-01T13:17:56.530Z,26.24
2022-11-01T13:20:38.037Z,26.16
2022-11-01T13:23:15.410Z,26.02
2022-11-01T13:25:52.465Z,25.99
2022-11-01T13:28:38.315Z,25.61
2022-11-01T13:31:30.919Z,24.94
2022-11-01T13:34:12.617Z,24.34
2022-11-01T13:36:59.096Z,23.86
2022-11-01T13:39:52.587Z,23.24
2022-11-01T13:42:24.716Z,22.47
2022-11-01T13:45:04.156Z,22.19
2022-11-01T13:47:59.989Z,21.74
2022-11-01T13:50:36.504Z,21.26
2022-11-01T13:53:15.403Z,20.85
2022-11-01T13:55:52.076Z,20.70
2022-11-01T13:58:20.625Z,20.43
2022-11-01T14:00:51.722Z,20.16
2022-11-01T14:03:23.422Z,19.81
2022-11-01T14:06:09.651Z,19.61
2022-11-01T14:08:42.791Z,19.23
2022-11-01T14:11:34.596Z,19.17
2022-11-01T14:14:45.197Z,19.16
2022-11-01T14:17:24.287Z,19.02
2022-11-01T14:19:58.793Z,18.82
2022-11-01T14:22:33.955Z,18.72
2022-11-01T14:25:23.993Z,18.64
2022-11-01T14:28:11.995Z,18.39
2022-11-01T14:30:42.601Z,18.29
2022-11-01T14:33:14.988Z,18.21
2022-11-01T14:35:47.628Z,18.08
2022-11-01T14:38:20.481Z,17.98
2022-11-01T14:40:59.476Z,17.91
2022-11-01T14:43:36.277Z,17.88
2022-11-01T14:46:09.898Z,17.89
2022-11-01T14:48:46.655Z,17.77
2022-11-01T14:51:35.358Z,17.73
2022-11-01T14:54:28.721Z,17.72
2022-11-01T14:56:58.162Z,17.68
2022-11-01T14:59:32.307Z,17.64
2022-11-01T15:02:03.586Z,17.61
2022-11-01T15:04:41.296Z,17.59
2022-11-01T15:07:29.422Z,17.58
2022-11-01T15:09:59.454Z,17.55
2022-11-01T15:12:29.878Z,17.50
2022-11-01T15:14:58.456Z,17.46
2022-11-01T15:17:29.534Z,17.40
2022-11-01T15:19:59.304Z,17.32
2022-11-01T15:22:30.605Z,17.28
2022-11-01T15:25:04.990Z,17.20
2022-11-01T15:27:43.878Z,17.14
2022-11-01T15:30:24.237Z,17.10
2022-11-01T15:32:56.626Z,17.02
2022-11-01T15:35:26.277Z,16.98
2022-11-01T15:37:54.678Z,16.92
2022-11-01T15:40:29.245Z,16.87
2022-11-01T15:43:02.670Z,16.78
2022-11-01T15:45:36.547Z,16.69
2022-11-01T15:48:09.381Z,16.66
2022-11-01T15:50:40.586Z,16.44
2022-11-01T15:53:11.713Z,16.28
2022-11-01T15:55:45.459Z,16.17
2022-11-01T15:58:20.190Z,16.07
2022-11-01T16:00:53.587Z,15.96
2022-11-01T16:03:40.008Z,15.96
2022-11-01T16:06:22.397Z,15.85
2022-11-01T16:09:03.052Z,15.76
2022-11-01T16:11:32.656Z,15.73
2022-11-01T16:14:04.096Z,15.69
2022-11-01T16:16:58.745Z,15.64
2022-11-01T16:19:40.099Z,15.53
2022-11-01T16:22:32.699Z,15.47
2022-11-01T16:25:12.444Z,15.49
2022-11-01T16:27:53.929Z,15.36
2022-11-01T16:30:46.101Z,15.29
2022-11-01T16:33:29.875Z,15.18
2022-11-01T16:36:03.873Z,15.14
2022-11-01T16:38:33.591Z,15.11
2022-11-01T16:41:03.144Z,15.09
2022-11-01T16:43:33.048Z,15.09
2022-11-01T16:46:00.926Z,15.05
2022-11-01T16:48:34.400Z,15.02
2022-11-01T16:51:03.776Z,15.02
2022-11-01T16:53:31.313Z,15.03
2022-11-01T16:56:34.245Z,15.01
2022-11-01T16:58:59.574Z,14.95
2022-11-01T17:01:35.251Z,14.93
2022-11-01T17:04:04.340Z,14.89
2022-11-01T17:06:36.139Z,14.82
2022-11-01T17:09:12.058Z,14.78
2022-11-01T17:11:39.329Z,14.72
2022-11-01T17:14:06.317Z,14.71
2022-11-01T17:16:34.051Z,14.71
2022-11-01T17:19:02.608Z,14.69
2022-11-01T17:21:32.696Z,14.68
2022-11-01T17:23:59.677Z,14.66
2022-11-01T17:26:26.741Z,14.72
2022-11-01T17:28:53.638Z,14.75
2022-11-01T17:31:20.706Z,14.62
2022-11-01T17:33:48.271Z,14.56
2022-11-01T17:36:17.294Z,14.55
2022-11-01T17:38:45.285Z,14.55
2022-11-01T17:41:18.357Z,14.54
2022-11-01T17:43:46.141Z,14.50
2022-11-01T17:46:20.255Z,14.42
2022-11-01T17:48:47.235Z,14.38
2022-11-01T17:51:14.224Z,14.44
2022-11-01T17:53:42.409Z,14.48
2022-11-01T17:56:09.675Z,14.49
2022-11-01T17:58:36.838Z,14.49
2022-11-01T18:01:04.636Z,14.49
2022-11-01T18:03:32.043Z,14.50
2022-11-01T18:05:59.875Z,14.59
2022-11-01T18:08:30.996Z,14.63
2022-11-01T18:11:31.459Z,14.64
2022-11-01T18:14:07.864Z,14.57
2022-11-01T18:16:51.021Z,14.60
2022-11-01T18:19:22.194Z,14.63
2022-11-01T18:21:49.237Z,14.61
2022-11-01T18:24:22.652Z,14.65
2022-11-01T18:26:50.024Z,14.61
2022-11-01T18:29:19.857Z,14.64
2022-11-01T18:31:57.446Z,14.62
2022-11-01T18:34:35.337Z,14.60
2022-11-01T18:37:28.636Z,14.58
2022-11-01T18:40:09.756Z,14.57
2022-11-01T18:42:37.563Z,14.52
2022-11-01T18:45:31.055Z,14.52
2022-11-01T18:48:13.025Z,14.50
2022-11-01T18:50:41.946Z,14.50
2022-11-01T18:53:08.851Z,14.47
2022-11-01T18:55:35.955Z,14.47
2022-11-01T18:58:16.289Z,14.43
2022-11-01T19:00:43.933Z,14.37
2022-11-01T19:03:14.977Z,14.38
2022-11-01T19:05:43.272Z,14.43
2022-11-01T19:08:23.782Z,14.48
2022-11-01T19:10:52.792Z,14.48
2022-11-01T19:13:29.723Z,14.49
2022-11-01T19:16:00.214Z,14.51
2022-11-01T19:18:28.942Z,14.50
2022-11-01T19:21:00.875Z,14.50
2022-11-01T19:23:40.291Z,14.51
2022-11-01T19:26:29.153Z,14.48
2022-11-01T19:28:56.154Z,14.52
2022-11-01T19:31:33.852Z,14.51
2022-11-01T19:34:10.967Z,14.45
2022-11-01T19:36:40.440Z,14.47
2022-11-01T19:39:40.912Z,14.44
2022-11-01T19:42:26.575Z,14.43
2022-11-01T19:45:27.985Z,14.40
2022-11-01T19:47:55.753Z,14.40
2022-11-01T19:50:30.240Z,14.44
2022-11-01T19:53:00.102Z,14.45
2022-11-01T19:55:55.722Z,14.44
2022-11-01T19:58:42.163Z,14.45
2022-11-01T20:01:23.298Z,14.52
2022-11-01T20:03:57.441Z,14.48
2022-11-01T20:06:30.126Z,14.53
2022-11-01T20:09:09.609Z,14.54
2022-11-01T20:11:36.611Z,14.53
2022-11-01T20:14:03.657Z,14.66
2022-11-01T20:16:31.174Z,14.62
2022-11-01T20:18:58.152Z,14.63
2022-11-01T20:21:25.166Z,14.66
2022-11-01T20:23:52.524Z,14.63
2022-11-01T20:26:19.453Z,14.62
2022-11-01T20:28:46.469Z,14.62
2022-11-01T20:31:13.512Z,14.67
2022-11-01T20:33:41.161Z,14.58
2022-11-01T20:36:11.321Z,14.56
2022-11-01T20:38:39.223Z,14.56
2022-11-01T20:41:06.577Z,14.57
2022-11-01T20:43:33.554Z,14.55
2022-11-01T20:46:00.553Z,14.56
2022-11-01T20:48:27.629Z,14.60
2022-11-01T20:50:54.576Z,14.61
2022-11-01T20:53:24.825Z,14.60
2022-11-01T20:55:55.713Z,14.60
2022-11-01T20:58:22.678Z,14.62
2022-11-01T21:00:51.705Z,14.60
2022-11-01T21:03:24.652Z,14.65
2022-11-01T21:05:52.002Z,14.65
2022-11-01T21:08:24.073Z,14.66
2022-11-01T21:11:01.206Z,14.64
2022-11-01T21:13:37.853Z,14.56
2022-11-01T21:16:14.373Z,14.61
2022-11-01T21:18:45.152Z,14.58
2022-11-01T21:21:15.234Z,14.57
2022-11-01T21:23:44.361Z,14.50
2022-11-01T21:26:21.377Z,14.56
2022-11-01T21:28:53.565Z,14.57
2022-11-01T21:31:32.413Z,14.50
2022-11-01T21:34:02.029Z,14.56
2022-11-01T21:36:34.693Z,14.61
2022-11-01T21:39:22.312Z,14.54
2022-11-01T21:41:51.509Z,14.54
2022-11-01T21:44:40.080Z,14.56
2022-11-01T21:47:23.472Z,14.55
2022-11-01T21:49:50.976Z,14.57
2022-11-01T21:52:21.024Z,14.60
2022-11-01T21:54:48.871Z,14.57
2022-11-01T21:57:16.912Z,14.57
2022-11-01T21:59:44.275Z,14.61
2022-11-01T22:02:14.015Z,14.62
2022-11-01T22:04:41.181Z,14.66
2022-11-01T22:07:09.353Z,14.66
2022-11-01T22:09:36.311Z,14.66
2022-11-01T22:12:03.734Z,14.66
2022-11-01T22:14:30.926Z,14.66
2022-11-01T22:16:58.297Z,14.63
2022-11-01T22:19:25.325Z,14.66
2022-11-01T22:21:52.263Z,14.66
2022-11-01T22:24:19.361Z,14.66
2022-11-01T22:26:46.331Z,14.70
2022-11-01T22:29:13.271Z,14.70
2022-11-01T22:31:40.219Z,14.71
2022-11-01T22:34:07.248Z,14.73
2022-11-01T22:36:36.645Z,14.77
2022-11-01T22:39:14.333Z,14.76
2022-11-01T22:41:41.646Z,14.75
2022-11-01T22:44:14.639Z,14.77
2022-11-01T22:46:54.899Z,14.78
2022-11-01T22:49:35.412Z,14.79
2022-11-01T22:52:23.074Z,14.78
2022-11-01T22:55:01.999Z,14.82
2022-11-01T22:57:33.563Z,14.83
2022-11-01T23:00:27.524Z,14.84
2022-11-01T23:03:13.230Z,14.86
2022-11-01T23:05:42.171Z,14.86
2022-11-01T23:08:26.415Z,14.77
2022-11-01T23:10:54.085Z,14.84
2022-11-01T23:13:44.622Z,14.85
2022-11-01T23:16:15.942Z,14.83
2022-11-01T23:18:44.092Z,14.83
2022-11-01T23:21:11.059Z,14.70
2022-11-01T23:23:42.223Z,14.69
2022-11-01T23:26:10.521Z,14.75
2022-11-01T23:28:40.590Z,14.75
2022-11-01T23:31:07.950Z,14.79
2022-11-01T23:33:49.360Z,14.84
2022-11-01T23:36:23.652Z,14.90
2022-11-01T23:41:48.854Z,14.90
2022-11-01T23:44:21.393Z,14.90
2022-11-01T23:46:49.005Z,14.76
2022-11-01T23:49:23.294Z,14.73
2022-11-01T23:51:51.492Z,14.73
2022-11-01T23:54:47.730Z,14.61
2022-11-01T23:57:20.572Z,14.74
2022-11-01T23:59:50.012Z,14.79
